METAR Data
IDs: Format: Raw Decoded Include TAF

Data at: 0850 UTC 03 Aug 2021

KBFL 030754Z AUTO 35008KT 8SM CLR 28/10 A2997 RMK AO2 SLP141 T02830100 403780233
KBFL 030654Z AUTO 36008KT 8SM CLR 30/10 A2997 RMK AO2 SLP141 T03000100
KBFL 030554Z AUTO 35004KT 9SM CLR 31/09 A2996 RMK AO2 SLP138 T03110089 10378 20311 51010
KBFL 030454Z 32005KT 9SM CLR 32/08 A2996 RMK AO2 SLP137 T03220083
KBFL 030354Z 35004KT 8SM CLR 33/09 A2994 RMK AO2 SLP132 T03330094
KBFL 030254Z 32004KT 8SM CLR 35/08 A2993 RMK AO2 SLP128 T03500083 55002
KBFL 030154Z 29006KT 8SM FEW110 37/08 A2993 RMK AO2 SLP126 T03670078
KBFL 030054Z 28009KT 8SM FEW110 37/08 A2993 RMK AO2 SLP127 T03720083
KBFL 022354Z 30010KT 8SM FEW110 37/09 A2994 RMK AO2 SLP130 T03720089 10372 20294 56019
KBFL 022254Z 29008G14KT 8SM CLR 37/09 A2995 RMK AO2 SLP133 T03720094
KBFL 022154Z 30008KT 8SM CLR 36/09 A2997 RMK AO2 SLP141 T03560094
KBFL 022054Z VRB04KT 8SM CLR 34/09 A2999 RMK AO2 SLP149 T03440089 58020
KBFL 021954Z VRB06G14KT 8SM CLR 33/09 A3001 RMK AO2 SLP155 T03280089
KBFL 021854Z 28010KT 7SM CLR 31/09 A3004 RMK AO2 SLP164 T03110094
KBFL 021754Z 29008KT 8SM CLR 29/09 A3005 RMK AO2 SLP169 T02940089 10300 20233 58005
KBFL 021654Z 30006KT 8SM CLR 28/10 A3006 RMK AO2 SLP173 T02780100
KBFL 021554Z 27005KT 6SM HZ CLR 26/11 A3007 RMK AO2 SLP177 T02560106
KBFL 021454Z 28004KT 6SM HZ CLR 25/09 A3007 RMK AO2 SLP174 T02500094 51014
KBFL 021354Z 04004KT 7SM CLR 25/10 A3006 RMK AO2 SLP171 T02500100
KBFL 021254Z AUTO 02007KT 9SM CLR 24/09 A3004 RMK AO2 SLP165 T02390089 TSNO
KBFL 021154Z AUTO 01009KT 10SM CLR 24/05 A3003 RMK AO2 SLP160 T02440050 10311 20233 53007 TSNO
KBFL 021054Z AUTO 35011KT 10SM CLR 26/01 A3002 RMK AO2 SLP157 T02560011 TSNO
KBFL 020954Z AUTO 04005KT 10SM CLR 26/M05 A3001 RMK AO2 SLP155 T02611050 TSNO
KBFL 020854Z AUTO 31005KT 9SM CLR 25/M08 A3001 RMK AO2 SLP153 T02501078 51006 TSNO
KBFL 020754Z AUTO 01003KT 10SM CLR 28/M10 A3000 RMK AO2 SLP151 T02781100 404110228 TSNO
KBFL 020654Z AUTO 36010KT 10SM CLR 30/M10 A3000 RMK AO2 SLP152 T03001100 TSNO
KBFL 020554Z 36010KT 10SM CLR 31/M03 A2999 RMK AO2 SLP147 T03111033 10411 20306 51026
KBFL 020454Z 01012KT 10SM CLR 31/02 A2998 RMK AO2 SLP143 T03060022
KBFL 020354Z 35012KT 6SM HZ CLR 32/06 A2994 RMK AO2 SLP132 T03170061
KBFL 020254Z 35010KT 8SM SCT110 38/08 A2991 RMK AO2 SLP120 T03780078 53003
KBFL 020154Z 32011KT 9SM BKN110 40/04 A2989 RMK AO2 SLP114 T04000044
KBFL 020054Z 32013KT 9SM BKN110 41/06 A2990 RMK AO2 SLP115 T04060056
KBFL 012354Z 32014KT 9SM BKN110 41/08 A2990 RMK AO2 SLP116 T04060078 10406 20328 56016
KBFL 012254Z 32014KT 8SM SCT110 40/09 A2991 RMK AO2 SLP120 T04000089
KBFL 012154Z 31014G18KT 8SM SCT110 39/10 A2993 RMK AO2 SLP127 T03940100
KBFL 012054Z 33010KT 290V360 8SM FEW120 39/10 A2995 RMK AO2 SLP133 T03890100 58020